Aeroporto :
LOGIN :

Iscrizione | Disclaimer

   EN    FR    IT 

 










Sommario :    VFR   VFR Marginale   IFR   IFR Intensivo   IFR Molto Intensivo
Visibilità : 
Base nubi : 
>= 8 km
>= 3000ft
5 / 8 km
1000 / 3000 ft
1500m / 5 km
500 / 1000 ft
800 / 1500m
200 / 500 ft
< 800m
< 200 ft
Simboli :   Temporali  Nebbia  Neve Forte  Precipitazioni Forti  Vento > 20 kt
SIGMETs :   Varie  Temporali  Ghiacco  Turbolenza  Onda orograficha  Ceneri Vulcaniche






- Altitudine del aeroporto : 1966 ft
- Codice IATA : SGE


EDGS - Siegerland

ULTIMO METAR :
  • 230850Z 26007KT 230V290 9999 SCT026 14/07 Q1016

METARs OBSOLETI :
  • 230820Z 27008KT 230V300 9999 FEW024 14/08 Q1016
  • 230750Z 23007KT 200V280 9999 FEW024 14/08 Q1016
  • 230720Z 24007KT 200V260 CAVOK 13/08 Q1016
  • 230650Z 27008KT 240V300 CAVOK 13/08 Q1015
  • 230620Z 27006KT 250V310 CAVOK 12/08 Q1015
  • 230550Z 28006KT CAVOK 12/08 Q1015
  • 230520Z 28005KT 250V310 CAVOK 12/08 Q1015
  • 230450Z AUTO 27005KT 9999 // NCD 11/08 Q1015
  • 230420Z AUTO 26004KT 9999 // NCD 11/07 Q1015

TAF TAF EDGS
Valido dal 23 a 09 ore il 23 a 18 ore UTC


230800Z 2309/2318 25007KT 9999 SCT025
PROB30
TEMPO 2314/2318 4500 TSRA SCT015CB



MetMap, La meteo Aeronautica in un colpo d'occhio ! - Copyright ORBIFLY Dicembre 2007 - Disclaimer

ORBIFLY MET'MAP TEAM :

Programmazione e sviluppo : Alexandra Zaïnal
Concezione : Baudouin d'Aumeries
Supporto tecnico e logistico : Manuel Goepfert
Aiuto : Marc-Olivier Méhu
Aiuto per la traduzione : Arnaldo La Scala




FONTI E CREDITI :

   NOAA